Time;durP1;ratioP1;P1;durP2;ratioP2;P2;SDS_P1;SDS_P2;PMS_P1;PMS_P2;Temp;Humidity;BMP_temperature;BMP_pressure;BME280_temperature;BME280_humidity;BME280_pressure;Samples;Min_cycle;Max_cycle;Signal;HPM_P1;HPM_P2
2023/06/18 00:01:59;;;;;;;14.48;10.68;;;16.40;99.90;;;-144.05;55.82;56785.13;5034049;28;20029;-79
2023/06/18 00:04:26;;;;;;;15.48;10.70;;;16.30;99.90;;;-144.05;56.44;56751.13;5051860;28;20402;-78
2023/06/18 00:06:56;;;;;;;14.23;10.80;;;16.20;99.90;;;-144.05;57.32;56774.50;5036999;28;20032;-79
2023/06/18 00:09:23;;;;;;;17.55;10.82;;;16.10;99.90;;;-144.05;57.34;56751.13;5038320;28;20372;-79
2023/06/18 00:11:50;;;;;;;14.75;11.15;;;16.10;99.90;;;-144.05;57.21;56768.13;5056348;28;20036;-78
2023/06/18 00:14:18;;;;;;;16.02;10.27;;;16.00;99.90;;;-144.05;57.57;56732.03;5056242;28;20032;-78
2023/06/18 00:16:44;;;;;;;17.60;11.18;;;15.90;99.90;;;-144.05;57.68;56778.75;5056184;28;20039;-80
2023/06/18 00:19:10;;;;;;;12.13;9.38;;;15.90;99.90;;;-144.05;57.93;56755.38;5056144;28;20067;-78
2023/06/18 00:21:37;;;;;;;14.07;9.88;;;15.80;99.90;;;-144.05;58.24;56761.75;5037999;28;20052;-78
2023/06/18 00:24:04;;;;;;;13.27;9.68;;;15.70;99.90;;;-144.05;58.60;56763.88;5056543;28;20025;-79
2023/06/18 00:26:30;;;;;;;12.85;9.57;;;15.70;99.90;;;-144.05;58.70;56757.50;5057292;28;20080;-80
2023/06/18 00:28:55;;;;;;;14.75;9.95;;;15.70;99.90;;;-144.05;59.08;56770.25;5039122;28;20067;-80
2023/06/18 00:31:21;;;;;;;15.02;10.38;;;15.60;99.90;;;-144.05;59.06;56761.75;5057534;28;20036;-80
2023/06/18 00:33:47;;;;;;;13.07;9.85;;;15.50;99.90;;;-144.05;59.25;56763.88;5057332;28;20505;-81
2023/06/18 00:36:15;;;;;;;14.10;9.75;;;15.50;99.90;;;-144.05;59.29;56759.63;5057362;28;20028;-82
2023/06/18 00:38:45;;;;;;;14.00;9.80;;;15.50;99.90;;;-144.05;59.34;56776.63;5057361;28;20078;-80
2023/06/18 00:41:12;;;;;;;14.73;9.93;;;15.50;99.90;;;-144.05;58.95;56755.38;5039528;28;20582;-81
2023/06/18 00:43:39;;;;;;;14.52;9.93;;;15.50;99.90;;;-144.05;58.97;56742.63;5039657;28;20428;-79
2023/06/18 00:46:07;;;;;;;12.55;9.35;;;15.50;99.90;;;-144.05;59.00;56763.88;5057393;28;20083;-79
2023/06/18 00:48:35;;;;;;;11.15;8.88;;;15.40;99.90;;;-144.05;59.38;56759.63;5057211;28;20032;-78
2023/06/18 00:51:03;;;;;;;14.88;9.43;;;15.40;99.90;;;-144.05;59.98;56744.75;5038834;28;20128;-79
2023/06/18 00:53:32;;;;;;;16.05;10.10;;;15.30;99.90;;;-144.05;60.38;56755.38;5038881;28;20079;-79
2023/06/18 00:55:59;;;;;;;12.85;9.55;;;15.20;99.90;;;-144.05;60.57;56753.25;5056771;28;20024;-78
2023/06/18 00:58:25;;;;;;;12.43;9.23;;;15.20;99.90;;;-144.05;60.53;56749.00;5056934;28;20210;-80
2023/06/18 01:00:51;;;;;;;13.63;9.40;;;15.20;99.90;;;-144.05;60.85;56755.38;5057208;28;20033;-80
2023/06/18 01:03:21;;;;;;;16.15;9.18;;;15.10;99.90;;;-144.05;61.20;56757.50;5041950;28;20021;-78
2023/06/18 01:06:01;;;;;;;12.25;9.88;;;15.00;99.90;;;-144.05;61.40;56778.75;5070335;28;20501;-77
2023/06/18 01:08:32;;;;;;;14.00;9.65;;;15.00;99.90;;;-144.05;61.55;56768.13;5054101;28;20035;-78
2023/06/18 01:11:06;;;;;;;12.70;9.23;;;15.00;99.90;;;-144.05;61.74;56761.75;5070869;28;20061;-78
2023/06/18 01:13:39;;;;;;;16.70;9.60;;;14.90;99.90;;;-144.05;62.16;56768.13;5071913;28;20039;-79
2023/06/18 01:16:09;;;;;;;13.30;9.18;;;14.80;99.90;;;-144.05;62.38;56761.75;5068880;28;20033;-81
2023/06/18 01:18:46;;;;;;;10.90;9.20;;;14.80;99.90;;;-144.05;62.84;56734.16;5054983;28;20021;-82
2023/06/18 01:21:20;;;;;;;11.90;9.32;;;14.80;99.90;;;-144.05;62.74;56755.38;5037453;28;20033;-79
2023/06/18 01:23:52;;;;;;;13.35;9.73;;;14.80;99.90;;;-144.05;62.87;56759.63;5037969;28;20092;-80
2023/06/18 01:26:20;;;;;;;13.55;9.82;;;14.70;99.90;;;-144.05;63.06;56761.75;5056168;28;20108;-80
2023/06/18 01:28:52;;;;;;;12.98;9.10;;;14.80;99.90;;;-144.05;63.26;56755.38;5037926;28;20040;-80
2023/06/18 01:31:21;;;;;;;12.40;9.65;;;14.70;99.90;;;-144.05;63.40;56751.13;5055683;28;20052;-79
2023/06/18 01:33:51;;;;;;;14.98;10.23;;;14.70;99.90;;;-144.05;63.31;56763.88;5056042;28;20029;-80
2023/06/18 01:36:35;;;;;;;14.82;9.65;;;14.70;99.90;;;-144.05;63.11;56746.88;5037735;28;20046;-79
2023/06/18 01:39:46;;;;;;;10.27;8.90;;;14.70;99.90;;;-144.05;62.85;56738.41;5055609;28;20032;-80
2023/06/18 01:42:21;;;;;;;12.80;8.63;;;14.70;99.90;;;-144.05;62.91;56755.38;5055556;28;20033;-82
2023/06/18 01:45:02;;;;;;;11.85;8.88;;;14.70;99.90;;;-144.05;62.78;56753.25;5055215;28;20029;-80
2023/06/18 01:47:30;;;;;;;10.85;8.63;;;14.70;99.90;;;-144.05;62.97;56755.38;5055308;28;20033;-79
2023/06/18 01:50:01;;;;;;;12.55;8.80;;;14.60;99.90;;;-144.05;63.07;56744.75;5055152;28;20029;-78
2023/06/18 01:52:34;;;;;;;13.07;8.55;;;14.60;99.90;;;-144.05;63.37;56759.63;5066401;28;20033;-79
2023/06/18 01:55:03;;;;;;;10.05;7.85;;;14.50;99.90;;;-144.05;63.30;56770.25;5057413;28;20029;-80
2023/06/18 01:57:34;;;;;;;15.45;8.93;;;14.50;99.90;;;-144.05;63.52;56759.63;5037799;28;20052;-81
2023/06/18 02:00:00;;;;;;;11.55;9.02;;;14.40;99.90;;;-144.05;63.71;56753.25;5037651;28;20025;-80
2023/06/18 02:02:26;;;;;;;12.32;9.75;;;14.40;99.90;;;-144.05;63.70;56759.63;5037507;28;20044;-80
2023/06/18 02:04:51;;;;;;;11.95;9.32;;;14.40;99.90;;;-144.05;63.51;56780.88;5055366;28;20029;-80
2023/06/18 02:07:17;;;;;;;13.00;9.50;;;14.40;99.90;;;-144.05;63.53;56759.63;5037470;28;20025;-80
2023/06/18 02:09:43;;;;;;;11.10;9.13;;;14.50;99.90;;;-144.05;63.32;56763.88;5055594;28;20488;-78
2023/06/18 02:12:10;;;;;;;13.20;8.55;;;14.50;99.90;;;-144.05;63.31;56751.13;5056234;28;20112;-80
2023/06/18 02:14:36;;;;;;;12.27;9.10;;;14.50;99.90;;;-144.05;63.23;56772.38;5056363;28;20060;-81
2023/06/18 02:17:02;;;;;;;15.50;9.50;;;14.50;99.90;;;-144.05;63.23;56776.63;5038324;28;20033;-79
2023/06/18 02:19:28;;;;;;;11.38;8.48;;;14.50;99.90;;;-144.05;63.18;56776.63;5038159;28;20398;-81
2023/06/18 02:21:53;;;;;;;11.77;8.85;;;14.40;99.90;;;-144.05;63.33;56770.25;5038113;28;20021;-80
2023/06/18 02:24:19;;;;;;;11.55;8.38;;;14.40;99.90;;;-144.05;63.35;56806.34;5038340;28;20075;-79
2023/06/18 02:26:45;;;;;;;10.70;8.40;;;14.40;99.90;;;-144.05;63.53;56778.75;5055271;28;20032;-79
2023/06/18 02:29:11;;;;;;;10.52;7.97;;;14.30;99.90;;;-144.05;63.40;56791.50;5036586;28;20047;-80
2023/06/18 02:31:37;;;;;;;11.27;9.00;;;14.30;99.90;;;-144.05;63.37;56755.38;5054997;28;20028;-79
2023/06/18 02:34:03;;;;;;;13.18;8.85;;;14.30;99.90;;;-144.05;63.42;56757.50;5055029;28;20394;-80
2023/06/18 02:36:28;;;;;;;11.93;9.05;;;14.20;99.90;;;-144.05;63.66;56742.63;5036632;28;20494;-79
2023/06/18 02:38:55;;;;;;;11.50;8.20;;;14.10;99.90;;;-144.05;63.77;56753.25;5036960;28;20021;-80
2023/06/18 02:41:21;;;;;;;12.57;8.38;;;14.10;99.90;;;-144.05;64.12;56772.38;5055804;28;20040;-81
2023/06/18 02:43:50;;;;;;;10.52;8.40;;;14.00;99.90;;;-144.05;64.40;56746.88;5037675;28;20056;-80
2023/06/18 02:46:18;;;;;;;14.85;8.98;;;14.00;99.90;;;-144.05;64.63;56759.63;5037133;28;20055;-80
2023/06/18 02:48:44;;;;;;;11.45;8.60;;;13.90;99.90;;;-144.05;64.79;56776.63;5036600;28;20064;-80
2023/06/18 02:51:11;;;;;;;12.75;8.60;;;13.90;99.90;;;-144.05;64.55;56761.75;5054430;28;20033;-81
2023/06/18 02:53:37;;;;;;;12.48;8.93;;;14.00;99.90;;;-144.05;64.42;56738.41;5036860;28;20573;-80
2023/06/18 02:56:03;;;;;;;11.00;9.00;;;14.00;99.90;;;-144.05;64.14;56783.00;5037664;28;20052;-79
2023/06/18 02:58:29;;;;;;;12.32;8.27;;;14.00;99.90;;;-144.05;63.93;56761.75;5037886;28;20040;-80
2023/06/18 03:01:00;;;;;;;14.85;8.82;;;14.00;99.90;;;-144.05;63.86;56780.88;5056019;28;20363;-80
2023/06/18 03:03:26;;;;;;;13.80;9.43;;;14.00;99.90;;;-144.05;63.74;56778.75;5055714;28;20033;-79
2023/06/18 03:05:53;;;;;;;12.98;8.68;;;14.00;99.90;;;-144.05;63.54;56759.63;5055595;28;20021;-80
2023/06/18 03:08:20;;;;;;;10.85;7.95;;;14.10;99.90;;;-144.05;63.28;56738.41;5055252;28;20025;-80
2023/06/18 03:10:46;;;;;;;10.30;8.05;;;14.10;99.90;;;-144.05;62.84;56751.13;5036929;28;20509;-79
2023/06/18 03:13:13;;;;;;;11.68;8.50;;;14.20;99.90;;;-144.05;62.43;56778.75;5036816;28;20037;-79
2023/06/18 03:15:39;;;;;;;9.98;8.02;;;14.20;99.90;;;-144.05;62.39;56738.41;5054471;28;20029;-79
2023/06/18 03:18:05;;;;;;;11.30;8.18;;;14.20;99.90;;;-144.05;62.23;56763.88;5055043;28;20025;-80
2023/06/18 03:20:32;;;;;;;10.52;8.32;;;14.20;99.90;;;-144.05;62.42;56772.38;5036805;28;20081;-79
2023/06/18 03:22:58;;;;;;;10.68;8.40;;;14.20;99.90;;;-144.05;62.64;56774.50;5055295;28;20070;-81
2023/06/18 03:25:24;;;;;;;9.98;7.40;;;14.20;99.90;;;-144.05;62.68;56761.75;5037130;28;20020;-81
2023/06/18 03:27:50;;;;;;;10.00;8.30;;;14.20;99.90;;;-144.05;62.71;56744.75;5054920;28;20033;-81
2023/06/18 03:30:17;;;;;;;10.15;8.10;;;14.20;99.90;;;-144.05;62.75;56742.63;5054628;28;20062;-80
2023/06/18 03:32:43;;;;;;;12.23;8.73;;;14.20;99.90;;;-144.05;62.58;56755.38;5037073;28;20055;-80
2023/06/18 03:35:10;;;;;;;12.10;8.00;;;14.20;99.90;;;-144.05;62.49;56766.00;5055663;28;20512;-80
2023/06/18 03:37:38;;;;;;;10.15;7.93;;;14.20;99.90;;;-144.05;62.48;56770.25;5037260;28;20066;-80
2023/06/18 03:40:06;;;;;;;10.95;8.07;;;14.30;99.90;;;-144.05;62.33;56768.13;5054171;28;20025;-80
2023/06/18 03:42:32;;;;;;;10.00;7.85;;;14.30;99.90;;;-144.05;62.27;56774.50;5036607;28;20032;-79
2023/06/18 03:44:58;;;;;;;9.43;7.45;;;14.30;99.90;;;-144.05;62.09;56768.13;5036457;28;20021;-81
2023/06/18 03:47:24;;;;;;;11.43;7.30;;;14.30;99.90;;;-144.05;62.16;56757.50;5054397;28;20028;-79
2023/06/18 03:49:50;;;;;;;13.38;8.52;;;14.40;99.90;;;-144.05;61.88;56772.38;5037278;28;20036;-82
2023/06/18 03:52:16;;;;;;;12.20;8.20;;;14.40;99.90;;;-144.05;61.69;56770.25;5057096;28;20106;-81
2023/06/18 03:54:41;;;;;;;9.93;7.82;;;14.50;99.90;;;-144.05;61.55;56749.00;5041169;28;20025;-80
2023/06/18 03:57:08;;;;;;;11.57;8.70;;;14.50;99.90;;;-144.05;61.48;56768.13;5058044;28;20486;-79
2023/06/18 03:59:34;;;;;;;12.15;7.95;;;14.60;99.90;;;-144.05;61.38;56789.38;5038079;28;20029;-80
2023/06/18 04:02:00;;;;;;;10.02;7.97;;;14.60;99.90;;;-144.05;61.28;56757.50;5058174;28;20120;-78
2023/06/18 04:04:26;;;;;;;12.13;8.25;;;14.70;99.90;;;-144.05;61.35;56772.38;5037246;28;20029;-80
2023/06/18 04:06:52;;;;;;;10.20;7.82;;;14.60;99.90;;;-144.05;61.25;56772.38;5037112;28;20029;-79
2023/06/18 04:09:18;;;;;;;9.50;7.60;;;14.70;99.90;;;-144.05;61.18;56746.88;5059900;28;20036;-78
2023/06/18 04:11:45;;;;;;;10.90;8.20;;;14.80;99.90;;;-144.05;61.09;56763.88;5060371;28;20120;-80
2023/06/18 04:14:11;;;;;;;15.35;8.18;;;14.80;99.90;;;-144.05;60.89;56761.75;5054598;28;20036;-79
2023/06/18 04:16:37;;;;;;;12.73;8.88;;;14.80;99.90;;;-144.05;60.75;56751.13;5036835;28;20029;-81
2023/06/18 04:19:03;;;;;;;11.30;8.00;;;14.90;99.90;;;-144.05;60.46;56759.63;5036754;28;20091;-80
2023/06/18 04:21:29;;;;;;;11.80;8.52;;;15.00;99.90;;;-144.05;60.29;56772.38;5054491;28;20440;-80
2023/06/18 04:23:56;;;;;;;11.75;8.10;;;15.10;99.90;;;-144.05;60.15;56770.25;5036451;28;20029;-78
2023/06/18 04:26:22;;;;;;;11.20;8.57;;;15.20;99.90;;;-144.05;59.99;56763.88;5036431;28;20029;-80
2023/06/18 04:28:50;;;;;;;11.68;7.72;;;15.20;99.90;;;-144.05;59.99;56761.75;5036121;28;20032;-79
2023/06/18 04:31:16;;;;;;;11.00;8.18;;;15.30;99.90;;;-144.05;60.42;56761.75;5054914;28;20678;-80
2023/06/18 04:33:42;;;;;;;9.65;8.07;;;15.30;99.90;;;-144.05;60.56;56749.00;5054232;28;20025;-77
2023/06/18 04:36:09;;;;;;;11.15;8.52;;;15.30;99.90;;;-144.05;60.63;56770.25;5054429;28;20548;-81
2023/06/18 04:38:37;;;;;;;9.40;7.82;;;15.40;99.90;;;-144.05;60.81;56757.50;5036719;28;20192;-79
2023/06/18 04:41:03;;;;;;;9.75;7.93;;;15.50;99.90;;;-144.05;60.99;56776.63;5036884;28;20045;-81
2023/06/18 04:43:28;;;;;;;9.20;7.22;;;15.60;99.90;;;-144.05;61.13;56787.25;5054999;28;20032;-79
2023/06/18 04:45:54;;;;;;;12.90;8.10;;;15.70;99.90;;;-144.05;60.74;56768.13;5055013;28;20056;-80
2023/06/18 04:48:22;;;;;;;10.38;8.13;;;15.90;99.90;;;-144.05;59.95;56789.38;5054676;28;20459;-80
2023/06/18 04:50:48;;;;;;;10.00;6.97;;;15.90;99.90;;;-144.05;59.99;56759.63;5036567;28;20033;-81
2023/06/18 04:53:15;;;;;;;10.45;8.23;;;16.00;99.90;;;-144.05;59.39;56772.38;5054716;28;20561;-81
2023/06/18 04:55:41;;;;;;;11.73;7.88;;;16.10;99.90;;;-144.05;58.61;56759.63;5057780;28;20029;-80
2023/06/18 04:58:07;;;;;;;9.98;8.30;;;16.30;99.90;;;-144.05;57.87;56763.88;5058067;28;20029;-79
2023/06/18 05:00:33;;;;;;;10.52;7.25;;;16.50;99.90;;;-144.05;57.32;56776.63;5057890;28;20017;-79
2023/06/18 05:03:00;;;;;;;11.30;7.75;;;16.70;99.90;;;-144.05;56.47;56763.88;5058400;23;20071;-84
2023/06/18 05:05:27;;;;;;;12.27;7.60;;;16.90;99.90;;;-144.05;55.69;56774.50;5082900;28;20033;-84
2023/06/18 05:07:53;;;;;;;9.50;7.75;;;17.10;99.90;;;-144.05;54.80;56770.25;5081439;28;20074;-84
2023/06/18 05:10:20;;;;;;;9.77;7.38;;;17.20;99.90;;;-144.05;53.79;56791.50;5072695;28;20053;-83
2023/06/18 05:12:48;;;;;;;9.60;7.13;;;17.50;99.90;;;-144.05;52.65;56789.38;5041307;28;20033;-83
2023/06/18 05:15:13;;;;;;;8.18;6.70;;;17.70;99.90;;;-144.05;51.88;56768.13;5041885;28;20051;-83
2023/06/18 05:17:39;;;;;;;10.77;7.57;;;18.00;99.90;;;-144.05;50.63;56778.75;5059356;28;20058;-83
2023/06/18 05:20:08;;;;;;;7.60;6.45;;;18.30;99.90;;;-144.05;50.07;56778.75;5040304;28;20025;-83
2023/06/18 05:22:34;;;;;;;11.52;7.15;;;18.60;99.90;;;-144.05;48.89;56789.38;5059108;28;20025;-82
2023/06/18 05:25:01;;;;;;;12.55;7.40;;;18.80;99.90;;;-144.05;48.61;56789.38;5057850;28;20025;-83
2023/06/18 05:27:30;;;;;;;14.45;6.90;;;19.10;99.90;;;-144.05;47.26;56797.88;5042745;28;20478;-82
2023/06/18 05:29:56;;;;;;;8.07;7.00;;;19.30;99.90;;;-144.05;46.38;56808.47;5058549;28;20034;-85
2023/06/18 05:32:22;;;;;;;8.90;6.90;;;19.50;99.90;;;-144.05;45.81;56795.75;5058395;28;20079;-82
2023/06/18 05:34:48;;;;;;;8.05;7.18;;;19.80;99.90;;;-144.05;44.79;56814.84;5039873;28;20032;-83
2023/06/18 05:37:14;;;;;;;7.97;6.32;;;20.00;99.90;;;-144.05;43.84;56791.50;5057841;28;20029;-83
2023/06/18 05:39:40;;;;;;;8.80;6.20;;;20.20;99.90;;;-144.05;42.93;56814.84;5040931;28;20029;-84
2023/06/18 05:42:07;;;;;;;8.18;6.07;;;20.40;99.90;;;-144.05;42.07;56819.09;5058408;28;20031;-83
2023/06/18 05:44:33;;;;;;;8.07;5.97;;;20.60;99.90;;;-144.05;41.90;56831.84;5058780;28;20056;-82
2023/06/18 05:46:59;;;;;;;9.60;6.28;;;20.80;99.90;;;-144.05;41.09;56848.84;5040388;28;20040;-81
2023/06/18 05:49:26;;;;;;;7.57;6.00;;;21.00;99.90;;;-144.05;40.82;56857.34;5041326;28;20033;-82
2023/06/18 05:51:52;;;;;;;8.32;5.85;;;21.20;99.90;;;-144.05;40.05;56829.72;5060158;28;20028;-82
2023/06/18 05:54:18;;;;;;;7.50;5.85;;;21.50;99.90;;;-144.05;39.60;56838.22;5060267;28;20490;-83
2023/06/18 05:56:44;;;;;;;7.65;6.30;;;21.60;99.90;;;-144.05;39.39;56823.34;5059458;28;20037;-82
2023/06/18 05:59:10;;;;;;;6.47;5.30;;;21.80;99.90;;;-144.05;39.20;56853.09;5041266;28;20344;-85
2023/06/18 06:01:37;;;;;;;7.50;5.88;;;22.00;99.90;;;-144.05;38.39;56823.34;5040376;28;20053;-81
2023/06/18 06:04:04;;;;;;;7.35;6.20;;;22.20;99.90;;;-144.05;38.11;56814.84;5039913;28;20093;-83
2023/06/18 06:06:30;;;;;;;7.72;5.93;;;22.50;99.90;;;-144.05;38.05;56829.72;5058532;28;20024;-82
2023/06/18 06:08:56;;;;;;;6.22;5.32;;;22.70;99.90;;;-144.05;37.75;56863.69;5042186;28;20052;-83
2023/06/18 06:11:22;;;;;;;6.95;5.70;;;22.80;99.90;;;-144.05;38.16;56850.97;5044122;28;20029;-82
2023/06/18 06:13:48;;;;;;;7.38;5.90;;;22.90;99.90;;;-144.05;38.01;56844.59;5061412;28;20088;-85
2023/06/18 06:16:14;;;;;;;6.57;5.38;;;23.00;99.90;;;-144.05;38.07;56857.34;5042892;28;20049;-82
2023/06/18 06:18:40;;;;;;;7.85;6.15;;;23.20;99.90;;;-144.05;37.68;56867.94;5042806;28;20470;-84
2023/06/18 06:21:07;;;;;;;6.57;5.25;;;23.40;99.90;;;-144.05;37.20;56865.81;5043060;28;20123;-84
2023/06/18 06:23:33;;;;;;;6.25;5.43;;;23.50;99.50;;;-144.05;36.86;56861.56;5045917;28;20032;-83
2023/06/18 06:25:59;;;;;;;8.30;5.88;;;23.70;98.00;;;-144.05;36.51;56857.34;5045548;28;20025;-83
2023/06/18 06:28:25;;;;;;;6.28;5.50;;;23.90;97.60;;;-144.05;36.15;56891.31;5060038;28;20057;-82
2023/06/18 06:30:51;;;;;;;7.35;5.50;;;24.10;97.00;;;-144.05;36.20;56887.06;5062410;28;20029;-83
2023/06/18 06:33:17;;;;;;;7.05;5.45;;;24.20;96.70;;;-144.05;36.15;56891.31;5062128;28;20075;-83
2023/06/18 06:35:44;;;;;;;8.02;6.32;;;24.20;96.60;;;-144.05;35.82;56904.06;5062851;28;20452;-82
2023/06/18 06:38:10;;;;;;;5.97;5.38;;;24.30;95.60;;;-144.05;35.56;56895.56;5046490;28;20514;-83
2023/06/18 06:40:36;;;;;;;8.50;5.47;;;24.50;94.80;;;-144.05;35.36;56906.19;5044580;28;20048;-83
2023/06/18 06:43:03;;;;;;;7.55;6.10;;;24.70;95.10;;;-144.05;35.05;56923.19;5062085;28;20071;-83
2023/06/18 06:45:29;;;;;;;6.72;5.43;;;24.90;94.00;;;-144.05;34.72;56927.41;5061657;28;20032;-85
2023/06/18 06:47:55;;;;;;;6.07;4.80;;;25.30;93.70;;;-144.05;34.41;56933.78;5071252;28;20071;-81
2023/06/18 06:50:21;;;;;;;6.75;5.60;;;25.50;92.90;;;-144.05;34.15;56908.31;5066438;28;20112;-83
2023/06/18 06:52:47;;;;;;;7.57;5.07;;;25.60;92.40;;;-144.05;33.51;56938.03;5061682;28;20053;-82
2023/06/18 06:55:13;;;;;;;5.72;5.13;;;25.70;91.10;;;-144.05;33.12;56933.78;5061709;28;20029;-83
2023/06/18 06:57:38;;;;;;;8.13;5.60;;;25.90;89.60;;;-144.05;32.26;56931.66;5061732;28;20029;-86
2023/06/18 07:00:06;;;;;;;6.32;4.95;;;25.90;86.70;;;-144.05;32.52;56935.91;5062116;28;20388;-83
2023/06/18 07:02:33;;;;;;;6.15;5.05;;;25.80;86.50;;;-144.05;32.42;56942.28;5045222;28;20071;-83
2023/06/18 07:04:59;;;;;;;6.72;5.20;;;25.90;86.30;;;-144.05;32.31;56935.91;5061092;28;20029;-86
2023/06/18 07:07:25;;;;;;;7.68;6.35;;;26.10;85.40;;;-144.05;31.96;56942.28;5045755;28;20025;-84
2023/06/18 07:09:51;;;;;;;6.60;5.22;;;26.20;84.20;;;-144.05;31.84;56950.78;5062201;28;20052;-85
2023/06/18 07:12:17;;;;;;;6.18;5.03;;;26.40;84.00;;;-144.05;31.58;56984.78;5060432;28;20036;-85
2023/06/18 07:14:43;;;;;;;5.93;5.20;;;26.70;82.60;;;-144.05;31.03;56995.38;5058615;28;20029;-82
2023/06/18 07:17:09;;;;;;;7.18;4.88;;;26.90;80.10;;;-144.05;31.38;56980.53;5042155;28;20059;-82
2023/06/18 07:19:35;;;;;;;7.82;5.20;;;27.20;80.90;;;-144.05;31.67;56976.28;5045038;28;20032;-84
2023/06/18 07:22:01;;;;;;;7.18;4.97;;;27.40;82.00;;;-144.05;30.83;56989.00;5065598;28;20044;-82
2023/06/18 07:24:27;;;;;;;6.68;5.22;;;27.50;77.80;;;-144.05;31.06;57008.13;5074948;28;20032;-86
2023/06/18 07:26:52;;;;;;;5.82;5.10;;;27.50;77.80;;;-144.05;30.47;57001.75;5047935;28;20043;-83
2023/06/18 07:29:18;;;;;;;6.45;4.72;;;27.60;76.80;;;-144.05;30.86;56957.16;5042590;28;20335;-83
2023/06/18 07:31:44;;;;;;;5.18;4.68;;;27.30;74.90;;;-144.05;31.63;56959.28;5045801;28;20055;-83
2023/06/18 07:34:11;;;;;;;8.02;5.07;;;27.30;77.30;;;-144.05;30.48;56969.91;5044398;28;20029;-82
2023/06/18 07:36:36;;;;;;;6.10;5.28;;;27.40;74.10;;;-144.05;30.83;57003.88;5043800;28;20112;-84
2023/06/18 07:39:02;;;;;;;6.60;5.05;;;27.60;75.50;;;-144.05;30.48;57003.88;5046126;28;20114;-86
2023/06/18 07:41:28;;;;;;;6.22;4.80;;;27.60;74.40;;;-144.05;30.55;57023.00;5043991;28;20041;-86
2023/06/18 07:43:54;;;;;;;7.10;4.90;;;27.80;74.50;;;-144.05;30.47;57018.75;5061932;28;20050;-82
2023/06/18 07:46:21;;;;;;;8.60;5.65;;;27.70;73.20;;;-144.05;30.80;57018.75;5061564;28;20052;-83
2023/06/18 07:48:47;;;;;;;6.70;5.32;;;27.80;74.40;;;-144.05;30.82;57023.00;5043390;28;20024;-85
2023/06/18 07:51:13;;;;;;;6.63;5.00;;;27.90;73.90;;;-144.05;30.53;57001.75;5044570;28;20029;-83
2023/06/18 07:53:39;;;;;;;5.50;4.97;;;27.90;72.90;;;-144.05;30.38;57025.13;5060667;28;20441;-85
2023/06/18 07:56:05;;;;;;;6.70;5.30;;;28.10;74.40;;;-144.05;30.62;57027.25;5047685;28;20025;-86
2023/06/18 07:58:31;;;;;;;5.97;5.22;;;28.10;73.40;;;-144.05;30.05;57033.63;5064350;28;20029;-83
2023/06/18 08:00:57;;;;;;;6.57;5.28;;;28.10;72.10;;;-144.05;30.22;57040.00;5047615;28;20033;-86
2023/06/18 08:03:23;;;;;;;6.60;5.47;;;28.20;73.30;;;-144.05;30.17;57050.63;5048832;28;20029;-83
2023/06/18 08:05:52;;;;;;;6.10;5.50;;;28.20;73.30;;;-144.05;29.91;57023.00;5049533;28;20036;-84
2023/06/18 08:08:21;;;;;;;6.60;5.07;;;28.10;70.50;;;-144.05;29.63;56995.38;5053381;28;20036;-82
2023/06/18 08:10:47;;;;;;;6.70;5.68;;;28.00;70.80;;;-144.05;29.77;57031.50;5052851;28;20025;-85
2023/06/18 08:13:13;;;;;;;7.28;5.30;;;27.90;69.90;;;-144.05;29.92;57008.13;5052817;28;20029;-82
2023/06/18 08:15:39;;;;;;;6.88;5.45;;;28.00;70.30;;;-144.05;29.24;57016.63;5047894;28;20059;-85
2023/06/18 08:18:05;;;;;;;6.22;5.63;;;28.30;68.60;;;-144.05;29.46;57052.75;5050535;28;20033;-81
2023/06/18 08:20:33;;;;;;;5.85;5.25;;;28.60;69.50;;;-144.05;28.47;57061.22;5052081;28;20024;-83
2023/06/18 08:22:59;;;;;;;6.85;4.80;;;28.90;66.60;;;-144.05;28.08;57086.72;5051199;28;20032;-85
2023/06/18 08:25:25;;;;;;;7.85;5.07;;;29.10;66.00;;;-144.05;28.12;57065.47;5051073;28;20084;-84
2023/06/18 08:27:51;;;;;;;6.05;5.45;;;29.10;64.70;;;-144.05;27.58;57082.47;5050247;28;20033;-83
2023/06/18 08:30:16;;;;;;;6.38;5.35;;;29.20;62.80;;;-144.05;27.36;57099.47;5051249;28;20101;-83
2023/06/18 08:32:43;;;;;;;5.55;5.03;;;29.50;62.90;;;-144.05;27.50;57063.34;5069398;28;20085;-83
2023/06/18 08:35:09;;;;;;;6.50;5.18;;;29.30;62.00;;;-144.05;27.26;57059.09;5066827;28;20052;-82
2023/06/18 08:37:36;;;;;;;7.88;5.80;;;29.20;60.70;;;-144.05;27.46;57052.75;5067190;28;20055;-84
2023/06/18 08:40:03;;;;;;;6.20;5.30;;;29.00;60.70;;;-144.05;27.63;57059.09;5070669;28;20025;-85
2023/06/18 08:42:30;;;;;;;6.53;4.35;;;28.80;61.80;;;-144.05;27.51;57063.34;5053304;28;20097;-83
2023/06/18 08:44:56;;;;;;;7.63;5.70;;;28.80;61.10;;;-144.05;27.39;57052.75;5052440;28;20029;-82
2023/06/18 08:47:22;;;;;;;5.95;5.25;;;28.80;61.30;;;-144.05;26.66;57071.84;5077547;28;20009;-80
2023/06/18 08:49:51;;;;;;;7.15;4.93;;;29.00;59.00;;;-144.05;26.75;57048.50;5050426;28;20029;-84
2023/06/18 08:52:20;;;;;;;6.07;5.18;;;29.20;59.30;;;-144.05;26.58;57103.72;5049411;28;20029;-86
2023/06/18 08:54:56;;;;;;;5.95;5.22;;;29.30;58.90;;;-144.05;25.64;57107.97;5046985;28;20057;-83
2023/06/18 08:57:47;;;;;;;8.73;5.03;;;29.60;56.50;;;-144.05;25.88;57154.69;5049305;28;20068;-82
2023/06/18 09:00:14;;;;;;;6.32;5.22;;;29.60;57.00;;;-144.05;25.50;57122.84;5065245;28;20032;-85
2023/06/18 09:02:41;;;;;;;5.75;5.00;;;29.90;55.80;;;-144.05;24.48;57133.44;5066387;28;20029;-83
2023/06/18 09:05:08;;;;;;;6.57;4.85;;;30.20;53.70;;;-144.05;24.41;57124.97;5047538;28;20025;-83
2023/06/18 09:07:36;;;;;;;7.03;4.60;;;30.30;53.50;;;-144.05;24.28;57133.44;5048802;28;20111;-85
2023/06/18 09:10:05;;;;;;;5.88;4.43;;;30.20;52.20;;;-144.05;24.63;57173.81;5068280;28;20040;-85
2023/06/18 09:12:31;;;;;;;5.30;4.78;;;30.50;53.60;;;-144.05;24.46;57150.44;5069709;28;20013;-83
2023/06/18 09:14:57;;;;;;;5.90;4.80;;;30.50;52.60;;;-144.05;23.90;57152.56;5047918;28;20033;-85
2023/06/18 09:17:24;;;;;;;8.18;5.15;;;30.50;51.20;;;-144.05;24.47;57141.94;5067701;28;20032;-83
2023/06/18 09:19:52;;;;;;;10.90;5.22;;;30.60;52.50;;;-144.05;24.21;57139.81;5047946;28;20029;-83
2023/06/18 09:22:21;;;;;;;6.97;5.30;;;30.40;51.20;;;-144.05;23.90;57150.44;5048331;28;20521;-86
2023/06/18 09:24:55;;;;;;;5.90;4.90;;;30.70;51.10;;;-144.05;24.37;57105.84;5046691;28;20041;-83
2023/06/18 09:27:33;;;;;;;5.22;4.32;;;30.50;51.30;;;-144.05;25.07;57107.97;5048419;28;20091;-85
2023/06/18 09:30:00;;;;;;;6.00;4.72;;;30.40;52.80;;;-144.05;23.95;57148.31;5048046;28;20040;-83
2023/06/18 09:32:26;;;;;;;6.03;5.20;;;30.60;51.10;;;-144.05;24.45;57163.19;5063557;28;20037;-83
2023/06/18 09:34:52;;;;;;;5.90;4.88;;;30.80;52.30;;;-144.05;24.55;57152.56;5062107;28;20028;-84
2023/06/18 09:37:20;;;;;;;5.20;4.70;;;30.60;52.00;;;-144.05;24.02;57129.22;5045835;28;20402;-83
2023/06/18 09:39:46;;;;;;;5.78;4.43;;;30.70;50.70;;;-144.05;23.63;57184.44;5063736;28;20108;-84
2023/06/18 09:42:14;;;;;;;6.07;4.68;;;30.70;49.10;;;-144.05;23.33;57190.81;5063285;28;20043;-84
2023/06/18 09:44:45;;;;;;;5.82;4.82;;;30.90;50.20;;;-144.05;23.76;57209.91;5045805;28;20501;-83
2023/06/18 09:47:15;;;;;;;5.55;4.95;;;31.00;50.80;;;-144.05;23.73;57188.69;5047920;28;20482;-81
2023/06/18 09:49:45;;;;;;;5.88;5.20;;;31.20;50.30;;;-144.05;24.05;57201.44;5047972;28;20036;-84
2023/06/18 09:52:11;;;;;;;5.75;4.53;;;31.20;51.10;;;-144.05;23.40;57199.31;5014776;28;20095;-82
2023/06/18 09:54:44;;;;;;;5.82;4.75;;;31.50;49.40;;;-144.05;23.01;57237.53;5024559;28;20089;-83
2023/06/18 09:57:13;;;;;;;5.28;4.63;;;31.60;47.60;;;-144.05;22.38;57243.91;5021516;28;20056;-81
2023/06/18 09:59:39;;;;;;;6.95;4.40;;;31.50;46.30;;;-144.05;21.46;57218.41;5020492;28;20041;-85
2023/06/18 10:02:13;;;;;;;6.35;4.93;;;31.50;44.10;;;-144.05;21.87;57195.06;5038099;28;20030;-83
2023/06/18 10:04:41;;;;;;;5.38;4.47;;;31.50;44.60;;;-144.05;22.16;57241.78;5023183;28;20067;-84